createdAt,value
2017-08-14T00:01:39.527Z,82.43
2017-08-14T00:04:06.962Z,82.73
2017-08-14T00:06:34.431Z,82.52
2017-08-14T00:09:01.895Z,82.66
2017-08-14T00:11:29.375Z,83.52
2017-08-14T00:13:56.840Z,83.00
2017-08-14T00:16:24.382Z,82.62
2017-08-14T00:18:51.842Z,83.17
2017-08-14T00:21:19.298Z,83.03
2017-08-14T00:23:46.859Z,83.38
2017-08-14T00:26:14.315Z,82.98
2017-08-14T00:28:41.874Z,82.58
2017-08-14T00:31:09.310Z,82.45
2017-08-14T00:33:36.782Z,83.05
2017-08-14T00:36:04.222Z,83.24
2017-08-14T00:38:31.682Z,82.96
2017-08-14T00:40:59.118Z,83.34
2017-08-14T00:43:26.610Z,82.57
2017-08-14T00:45:54.067Z,82.47
2017-08-14T00:48:21.514Z,82.64
2017-08-14T00:50:49.191Z,82.38
2017-08-14T00:53:16.748Z,83.03
2017-08-14T00:55:44.212Z,82.74
2017-08-14T00:58:11.671Z,82.80
2017-08-14T01:00:39.175Z,82.35
2017-08-14T01:03:06.677Z,81.95
2017-08-14T01:05:34.192Z,82.40
2017-08-14T01:08:01.687Z,83.03
2017-08-14T01:10:29.144Z,83.07
2017-08-14T01:12:56.581Z,82.78
2017-08-14T01:15:24.050Z,83.41
2017-08-14T01:17:51.512Z,83.34
2017-08-14T01:20:18.985Z,83.38
2017-08-14T01:22:46.522Z,83.65
2017-08-14T01:25:13.966Z,83.13
2017-08-14T01:27:41.426Z,83.25
2017-08-14T01:30:08.900Z,83.77
2017-08-14T01:32:36.450Z,83.34
2017-08-14T01:35:03.934Z,83.65
2017-08-14T01:37:31.455Z,83.77
2017-08-14T01:39:59.135Z,83.83
2017-08-14T01:42:26.592Z,82.84
2017-08-14T01:44:54.615Z,82.46
2017-08-14T01:47:22.082Z,83.70
2017-08-14T01:49:49.527Z,84.03
2017-08-14T01:52:17.318Z,84.67
2017-08-14T01:54:44.800Z,84.43
2017-08-14T01:57:12.278Z,84.34
2017-08-14T01:59:39.734Z,84.06
2017-08-14T02:02:07.175Z,83.95
2017-08-14T02:04:35.066Z,84.56
2017-08-14T02:07:02.603Z,84.25
2017-08-14T02:09:30.142Z,85.35
2017-08-14T02:11:57.597Z,84.94
2017-08-14T02:14:25.083Z,85.45
2017-08-14T02:16:52.923Z,83.88
2017-08-14T02:19:20.380Z,84.34
2017-08-14T02:21:47.911Z,84.65
2017-08-14T02:24:15.379Z,84.84
2017-08-14T02:26:42.817Z,84.43
2017-08-14T02:29:10.322Z,84.57
2017-08-14T02:31:37.778Z,84.19
2017-08-14T02:34:05.329Z,84.25
2017-08-14T02:36:32.879Z,83.73
2017-08-14T02:39:00.393Z,84.34
2017-08-14T02:41:27.902Z,85.07
2017-08-14T02:43:55.334Z,84.39
2017-08-14T02:46:22.793Z,84.22
2017-08-14T02:48:50.271Z,83.71
2017-08-14T02:51:17.735Z,84.67
2017-08-14T02:53:45.279Z,85.87
2017-08-14T02:56:12.834Z,87.67
2017-08-14T02:58:40.290Z,87.55
2017-08-14T03:01:07.860Z,87.45
2017-08-14T03:03:35.312Z,86.56
2017-08-14T03:06:02.765Z,85.45
2017-08-14T03:08:30.360Z,85.50
2017-08-14T03:10:57.901Z,87.00
2017-08-14T03:13:25.400Z,85.86
2017-08-14T03:15:52.906Z,86.08
2017-08-14T03:18:20.358Z,85.77
2017-08-14T03:20:48.124Z,84.80
2017-08-14T03:23:15.674Z,84.67
2017-08-14T03:25:43.114Z,84.66
2017-08-14T03:28:10.593Z,85.18
2017-08-14T03:30:38.047Z,85.56
2017-08-14T03:33:05.521Z,85.51
2017-08-14T03:35:33.056Z,85.58
2017-08-14T03:38:00.499Z,85.52
2017-08-14T03:40:27.950Z,83.98
2017-08-14T03:42:55.389Z,83.98
2017-08-14T03:45:22.855Z,84.35
2017-08-14T03:47:50.352Z,85.41
2017-08-14T03:50:17.827Z,85.83
2017-08-14T03:52:45.368Z,86.81
2017-08-14T03:55:12.831Z,87.28
2017-08-14T03:57:40.291Z,88.14
2017-08-14T04:00:07.746Z,87.24
2017-08-14T04:02:35.227Z,86.35
2017-08-14T04:05:02.709Z,86.82
2017-08-14T04:07:30.150Z,86.39
2017-08-14T04:09:57.658Z,86.88
2017-08-14T04:12:25.123Z,86.52
2017-08-14T04:14:52.680Z,86.11
2017-08-14T04:17:20.147Z,85.73
2017-08-14T04:19:47.688Z,85.55
2017-08-14T04:22:15.141Z,85.70
2017-08-14T04:24:42.594Z,85.16
2017-08-14T04:27:10.175Z,84.69
2017-08-14T04:29:37.614Z,85.89
2017-08-14T04:32:05.101Z,85.42
2017-08-14T04:34:32.558Z,85.56
2017-08-14T04:37:00.032Z,85.59
2017-08-14T04:39:27.495Z,85.18
2017-08-14T04:41:55.008Z,85.79
2017-08-14T04:44:22.464Z,85.83
2017-08-14T04:46:50.023Z,85.20
2017-08-14T04:49:17.462Z,85.23
2017-08-14T04:51:44.990Z,85.79
2017-08-14T04:54:12.700Z,85.19
2017-08-14T04:56:40.170Z,85.31
2017-08-14T04:59:07.726Z,85.49
2017-08-14T05:01:35.171Z,85.83
2017-08-14T05:04:02.766Z,84.94
2017-08-14T05:06:30.291Z,84.75
2017-08-14T05:08:57.798Z,84.88
2017-08-14T05:11:25.304Z,85.18
2017-08-14T05:13:52.850Z,84.20
2017-08-14T05:16:20.292Z,84.48
2017-08-14T05:18:47.785Z,84.03
2017-08-14T05:21:15.244Z,84.49
2017-08-14T05:23:42.786Z,81.83
2017-08-14T05:26:10.266Z,80.07
2017-08-14T05:28:37.751Z,77.80
2017-08-14T05:31:05.250Z,78.39
2017-08-14T05:33:32.722Z,77.67
2017-08-14T05:36:00.183Z,77.13
2017-08-14T05:38:27.654Z,77.15
2017-08-14T05:40:55.345Z,75.58
2017-08-14T05:43:22.778Z,75.60
2017-08-14T05:45:50.357Z,75.08
2017-08-14T05:48:17.839Z,74.34
2017-08-14T05:50:45.323Z,75.42
2017-08-14T05:53:13.906Z,75.22
2017-08-14T05:55:41.371Z,74.23
2017-08-14T05:58:08.820Z,74.09
2017-08-14T06:00:36.386Z,74.28
2017-08-14T06:03:03.830Z,73.12
2017-08-14T06:05:31.318Z,74.48
2017-08-14T06:07:58.779Z,74.87
2017-08-14T06:10:26.306Z,74.31
2017-08-14T06:12:53.815Z,75.13
2017-08-14T06:15:21.263Z,74.55
2017-08-14T06:17:48.731Z,73.55
2017-08-14T06:20:16.191Z,72.89
2017-08-14T06:22:43.651Z,73.38
2017-08-14T06:25:11.138Z,72.93
2017-08-14T06:27:38.703Z,72.67
2017-08-14T06:30:06.164Z,71.65
2017-08-14T06:32:33.633Z,73.18
2017-08-14T06:35:01.077Z,73.46
2017-08-14T06:37:28.536Z,72.51
2017-08-14T06:39:56.087Z,72.98
2017-08-14T06:42:23.547Z,71.75
2017-08-14T06:44:51.003Z,74.04
2017-08-14T06:47:18.461Z,71.90
2017-08-14T06:49:46.014Z,75.26
2017-08-14T06:52:13.570Z,73.21
2017-08-14T06:54:41.005Z,74.84
2017-08-14T06:57:08.467Z,73.72
2017-08-14T06:59:35.916Z,75.29
2017-08-14T07:02:03.457Z,74.87
2017-08-14T07:04:32.119Z,75.69
2017-08-14T07:06:59.606Z,76.67
2017-08-14T07:09:27.097Z,76.16
2017-08-14T07:11:54.557Z,74.50
2017-08-14T07:14:22.110Z,74.67
2017-08-14T07:16:49.578Z,75.09
2017-08-14T07:19:17.125Z,75.19
2017-08-14T07:21:44.571Z,74.99
2017-08-14T07:24:12.142Z,74.55
2017-08-14T07:26:39.615Z,75.25
2017-08-14T07:29:07.082Z,75.67
2017-08-14T07:31:34.614Z,74.45
2017-08-14T07:34:02.077Z,75.63
2017-08-14T07:36:29.534Z,75.33
2017-08-14T07:38:56.994Z,75.45
2017-08-14T07:41:24.554Z,75.51
2017-08-14T07:43:52.108Z,75.29
2017-08-14T07:46:19.554Z,75.49
2017-08-14T07:48:47.295Z,75.57
2017-08-14T07:51:14.757Z,75.39
2017-08-14T07:53:42.224Z,76.33
2017-08-14T07:56:09.803Z,76.62
2017-08-14T07:58:37.252Z,75.53
2017-08-14T08:01:04.766Z,75.35
2017-08-14T08:03:32.272Z,73.91
2017-08-14T08:05:59.822Z,72.49
2017-08-14T08:08:27.283Z,74.69
2017-08-14T08:10:54.751Z,76.14
2017-08-14T08:13:22.294Z,76.97
2017-08-14T08:15:49.767Z,77.32
2017-08-14T08:18:17.310Z,77.46
2017-08-14T08:20:44.774Z,77.64
2017-08-14T08:23:12.328Z,79.08
2017-08-14T08:25:39.842Z,77.66
2017-08-14T08:28:07.343Z,77.57
2017-08-14T08:30:34.815Z,79.05
2017-08-14T08:33:02.280Z,77.26
2017-08-14T08:35:29.757Z,75.19
2017-08-14T08:37:57.191Z,76.63
2017-08-14T08:40:24.700Z,74.69
2017-08-14T08:42:52.171Z,75.57
2017-08-14T08:45:19.637Z,71.19
2017-08-14T08:47:47.130Z,72.69
2017-08-14T08:50:14.656Z,71.82
2017-08-14T08:52:42.210Z,71.91
2017-08-14T08:55:09.672Z,71.65
2017-08-14T08:57:37.128Z,71.87
2017-08-14T09:00:04.642Z,71.07
2017-08-14T09:02:32.150Z,71.43
2017-08-14T09:04:59.760Z,71.42
2017-08-14T09:07:27.260Z,69.47
2017-08-14T09:09:54.721Z,69.54
2017-08-14T09:12:22.178Z,67.20
2017-08-14T09:14:49.614Z,68.24
2017-08-14T09:17:17.086Z,67.80
2017-08-14T09:19:44.631Z,67.23
2017-08-14T09:22:12.099Z,67.32
2017-08-14T09:24:39.759Z,66.51
2017-08-14T09:27:07.327Z,65.16
2017-08-14T09:29:34.762Z,65.19
2017-08-14T09:32:02.253Z,65.94
2017-08-14T09:34:29.690Z,66.21
2017-08-14T09:36:57.203Z,63.99
2017-08-14T09:39:24.667Z,63.42
2017-08-14T09:41:52.119Z,62.87
2017-08-14T09:44:19.592Z,63.33
2017-08-14T09:46:47.028Z,62.56
2017-08-14T09:49:14.491Z,63.26
2017-08-14T09:51:41.934Z,63.37
2017-08-14T09:54:09.449Z,64.06
2017-08-14T09:56:36.903Z,62.38
2017-08-14T09:59:04.358Z,63.70
2017-08-14T10:01:31.827Z,62.25
2017-08-14T10:03:59.373Z,63.34
2017-08-14T10:06:26.813Z,64.09
2017-08-14T10:08:54.267Z,62.27
2017-08-14T10:11:21.734Z,61.10
2017-08-14T10:13:49.476Z,61.28
2017-08-14T10:16:17.308Z,60.67
2017-08-14T10:18:44.828Z,61.03
2017-08-14T10:21:15.068Z,61.56
2017-08-14T10:23:42.711Z,61.11
2017-08-14T10:26:10.155Z,60.20
2017-08-14T10:28:38.071Z,60.86
2017-08-14T10:31:05.550Z,59.69
2017-08-14T10:33:33.001Z,59.36
2017-08-14T10:36:00.474Z,59.23
2017-08-14T10:38:27.919Z,58.65
2017-08-14T10:40:55.492Z,59.90
2017-08-14T10:43:22.935Z,59.51
2017-08-14T10:45:50.394Z,59.56
2017-08-14T10:48:17.838Z,58.95
2017-08-14T10:50:45.343Z,60.40
2017-08-14T10:53:12.805Z,59.76
2017-08-14T10:55:40.267Z,59.59
2017-08-14T10:58:07.714Z,58.95
2017-08-14T11:00:35.175Z,60.25
2017-08-14T11:03:02.691Z,60.84
2017-08-14T11:05:30.648Z,61.60
2017-08-14T11:07:58.086Z,59.43
2017-08-14T11:10:25.576Z,59.52
2017-08-14T11:12:53.027Z,59.69
2017-08-14T11:15:20.476Z,58.75
2017-08-14T11:17:48.241Z,58.18
2017-08-14T11:20:15.691Z,59.66
2017-08-14T11:22:43.199Z,58.26
2017-08-14T11:25:10.644Z,58.09
2017-08-14T11:27:38.210Z,57.18
2017-08-14T11:30:05.655Z,57.79
2017-08-14T11:32:33.226Z,58.50
2017-08-14T11:35:00.687Z,59.95
2017-08-14T11:37:28.166Z,59.28
2017-08-14T11:39:55.694Z,58.34
2017-08-14T11:42:23.278Z,57.85
2017-08-14T11:44:50.723Z,58.99
2017-08-14T11:47:18.277Z,58.66
2017-08-14T11:49:45.839Z,58.38
2017-08-14T11:52:13.398Z,58.28
2017-08-14T11:54:41.078Z,57.88
2017-08-14T11:57:08.543Z,58.34
2017-08-14T11:59:35.987Z,57.98
2017-08-14T12:02:03.481Z,57.55
2017-08-14T12:04:30.983Z,57.74
2017-08-14T12:06:58.422Z,56.91
2017-08-14T12:09:25.900Z,57.03
2017-08-14T12:11:53.341Z,57.29
2017-08-14T12:14:20.808Z,56.03
2017-08-14T12:16:48.259Z,54.00
2017-08-14T12:19:15.720Z,53.15
2017-08-14T12:21:43.159Z,52.70
2017-08-14T12:24:10.631Z,51.99
2017-08-14T12:26:38.092Z,53.40
2017-08-14T12:29:05.654Z,53.59
2017-08-14T12:31:33.095Z,51.79
2017-08-14T12:34:00.669Z,52.06
2017-08-14T12:36:28.110Z,51.29
2017-08-14T12:38:55.577Z,50.49
2017-08-14T12:41:23.041Z,50.40
2017-08-14T12:43:50.797Z,51.49
2017-08-14T12:46:18.267Z,52.25
2017-08-14T12:48:45.711Z,52.33
2017-08-14T12:51:13.274Z,52.57
2017-08-14T12:53:40.834Z,52.34
2017-08-14T12:56:08.482Z,52.55
2017-08-14T12:58:35.926Z,51.57
2017-08-14T13:01:03.399Z,52.17
2017-08-14T13:03:30.830Z,53.10
2017-08-14T13:05:58.303Z,52.77
2017-08-14T13:08:26.012Z,53.00
2017-08-14T13:10:53.506Z,53.26
2017-08-14T13:13:20.995Z,53.57
2017-08-14T13:15:48.555Z,53.03
2017-08-14T13:18:16.166Z,52.75
2017-08-14T13:20:43.667Z,50.43
2017-08-14T13:23:11.124Z,50.27
2017-08-14T13:25:38.610Z,50.16
2017-08-14T13:28:06.062Z,49.62
2017-08-14T13:30:33.550Z,50.06
2017-08-14T13:33:00.991Z,48.47
2017-08-14T13:35:28.512Z,49.15
2017-08-14T13:37:55.971Z,49.60
2017-08-14T13:40:23.425Z,50.41
2017-08-14T13:42:50.984Z,49.50
2017-08-14T13:45:18.426Z,49.90
2017-08-14T13:47:45.882Z,49.97
2017-08-14T13:50:13.323Z,50.60
2017-08-14T13:52:40.782Z,50.27
2017-08-14T13:55:08.225Z,48.55
2017-08-14T13:57:35.791Z,49.24
2017-08-14T14:00:03.231Z,48.38
2017-08-14T14:02:30.695Z,47.24
2017-08-14T14:04:58.187Z,48.27
2017-08-14T14:07:25.652Z,48.07
2017-08-14T14:09:53.094Z,48.33
2017-08-14T14:12:20.558Z,46.61
2017-08-14T14:14:47.999Z,47.65
2017-08-14T14:17:16.298Z,48.10
2017-08-14T14:19:43.867Z,48.88
2017-08-14T14:22:11.311Z,48.86
2017-08-14T14:24:38.774Z,47.29
2017-08-14T14:27:06.219Z,48.79
2017-08-14T14:29:33.680Z,48.64
2017-08-14T14:32:01.233Z,47.68
2017-08-14T14:34:28.691Z,48.33
2017-08-14T14:36:56.139Z,48.21
2017-08-14T14:39:23.703Z,48.85
2017-08-14T14:41:51.158Z,49.44
2017-08-14T14:44:18.726Z,49.00
2017-08-14T14:46:46.189Z,49.12
2017-08-14T14:49:13.650Z,48.56
2017-08-14T14:51:41.210Z,48.20
2017-08-14T14:54:08.751Z,48.59
2017-08-14T14:56:36.192Z,48.58
2017-08-14T14:59:03.716Z,48.66
2017-08-14T15:01:31.195Z,49.10
2017-08-14T15:03:58.991Z,48.79
2017-08-14T15:06:26.435Z,49.20
2017-08-14T15:08:53.905Z,48.56
2017-08-14T15:11:21.376Z,49.30
2017-08-14T15:13:48.974Z,49.65
2017-08-14T15:16:16.478Z,50.08
2017-08-14T15:18:44.038Z,49.86
2017-08-14T15:21:11.494Z,49.96
2017-08-14T15:23:38.939Z,50.41
2017-08-14T15:26:06.403Z,49.50
2017-08-14T15:28:33.850Z,49.36
2017-08-14T15:31:01.358Z,48.72
2017-08-14T15:33:28.879Z,48.33
2017-08-14T15:35:56.346Z,47.11
2017-08-14T15:38:23.793Z,47.13
2017-08-14T15:40:51.342Z,47.82
2017-08-14T15:43:18.777Z,46.83
2017-08-14T15:45:46.237Z,45.75
2017-08-14T15:48:13.686Z,44.85
2017-08-14T15:50:41.163Z,45.56
2017-08-14T15:53:08.642Z,45.65
2017-08-14T15:55:36.083Z,45.65
2017-08-14T15:58:03.597Z,46.27
2017-08-14T16:00:31.047Z,46.96
2017-08-14T16:02:58.560Z,46.56
2017-08-14T16:05:26.113Z,47.34
2017-08-14T16:07:53.574Z,47.50
2017-08-14T16:10:21.136Z,48.56
2017-08-14T16:12:48.696Z,47.75
2017-08-14T16:15:16.250Z,48.17
2017-08-14T16:17:43.817Z,47.92
2017-08-14T16:20:11.253Z,49.02
2017-08-14T16:22:38.718Z,48.37
2017-08-14T16:25:06.201Z,48.34
2017-08-14T16:27:33.657Z,48.57
2017-08-14T16:30:01.094Z,48.71
2017-08-14T16:32:28.576Z,48.32
2017-08-14T16:34:56.094Z,47.77
2017-08-14T16:37:23.575Z,47.91
2017-08-14T16:39:51.114Z,48.20
2017-08-14T16:42:18.554Z,48.40
2017-08-14T16:44:46.138Z,48.31
2017-08-14T16:47:13.621Z,48.43
2017-08-14T16:49:41.162Z,49.13
2017-08-14T16:52:08.619Z,49.92
2017-08-14T16:54:36.174Z,50.06
2017-08-14T16:57:03.635Z,52.00
2017-08-14T16:59:31.198Z,51.90
2017-08-14T17:01:58.659Z,51.60
2017-08-14T17:04:26.296Z,49.46
2017-08-14T17:06:53.809Z,49.90
2017-08-14T17:09:21.315Z,49.52
2017-08-14T17:11:48.889Z,49.40
2017-08-14T17:14:16.382Z,49.97
2017-08-14T17:16:43.854Z,50.78
2017-08-14T17:19:11.314Z,50.61
2017-08-14T17:21:38.809Z,50.11
2017-08-14T17:24:06.274Z,50.87
2017-08-14T17:26:33.732Z,50.49
2017-08-14T17:29:01.289Z,50.88
2017-08-14T17:31:30.078Z,51.30
2017-08-14T17:33:57.672Z,50.94
2017-08-14T17:36:25.189Z,51.30
2017-08-14T17:38:52.662Z,51.29
2017-08-14T17:41:20.195Z,51.43
2017-08-14T17:43:47.634Z,51.99
2017-08-14T17:46:15.114Z,52.42
2017-08-14T17:48:42.559Z,52.57
2017-08-14T17:51:10.031Z,53.09
2017-08-14T17:53:37.639Z,54.24
2017-08-14T17:56:05.102Z,55.04
2017-08-14T17:58:32.543Z,55.73
2017-08-14T18:01:00.051Z,56.07
2017-08-14T18:03:27.608Z,56.72
2017-08-14T18:05:55.674Z,57.18
2017-08-14T18:08:23.127Z,56.89
2017-08-14T18:10:50.907Z,57.69
2017-08-14T18:13:18.459Z,58.70
2017-08-14T18:15:45.894Z,58.53
2017-08-14T18:18:13.672Z,60.14
2017-08-14T18:20:41.143Z,61.77
2017-08-14T18:23:08.610Z,63.48
2017-08-14T18:25:36.149Z,65.21
2017-08-14T18:28:03.614Z,65.76
2017-08-14T18:30:31.069Z,66.01
2017-08-14T18:32:58.534Z,66.46
2017-08-14T18:35:25.975Z,66.34
2017-08-14T18:37:53.526Z,65.79
2017-08-14T18:40:20.986Z,65.50
2017-08-14T18:42:48.642Z,65.80
2017-08-14T18:45:16.088Z,66.50
2017-08-14T18:47:43.662Z,65.78
2017-08-14T18:50:11.120Z,65.83
2017-08-14T18:52:38.574Z,65.53
2017-08-14T18:55:06.088Z,65.70
2017-08-14T18:57:33.551Z,66.29
2017-08-14T19:00:00.994Z,65.44
2017-08-14T19:02:28.503Z,65.63
2017-08-14T19:04:55.958Z,64.90
2017-08-14T19:07:23.804Z,65.51
2017-08-14T19:09:51.925Z,66.49
2017-08-14T19:12:18.630Z,67.41
2017-08-14T19:14:46.067Z,67.69
2017-08-14T19:17:13.851Z,67.90
2017-08-14T19:19:41.394Z,67.46
2017-08-14T19:22:08.862Z,66.70
2017-08-14T19:24:36.316Z,66.99
2017-08-14T19:27:03.759Z,67.80
2017-08-14T19:29:31.215Z,68.06
2017-08-14T19:31:59.642Z,68.14
2017-08-14T19:34:27.099Z,68.40
2017-08-14T19:36:54.563Z,68.67
2017-08-14T19:39:22.075Z,69.20
2017-08-14T19:41:49.537Z,69.54
2017-08-14T19:44:17.108Z,69.99
2017-08-14T19:46:44.720Z,70.47
2017-08-14T19:49:12.217Z,71.02
2017-08-14T19:51:39.678Z,71.43
2017-08-14T19:54:07.133Z,72.30
2017-08-14T19:56:34.570Z,72.68
2017-08-14T19:59:02.026Z,72.60
2017-08-14T20:01:29.466Z,72.68
2017-08-14T20:03:56.961Z,73.44
2017-08-14T20:06:24.434Z,73.01
2017-08-14T20:08:52.033Z,73.42
2017-08-14T20:11:19.503Z,73.82
2017-08-14T20:13:46.990Z,74.10
2017-08-14T20:16:14.459Z,73.96
2017-08-14T20:18:42.002Z,73.95
2017-08-14T20:21:09.454Z,73.88
2017-08-14T20:23:36.892Z,74.89
2017-08-14T20:26:04.386Z,74.86
2017-08-14T20:28:31.830Z,75.75
2017-08-14T20:30:59.295Z,75.70
2017-08-14T20:33:26.847Z,75.92
2017-08-14T20:35:54.432Z,75.97
2017-08-14T20:38:21.958Z,75.92
2017-08-14T20:40:49.680Z,76.50
2017-08-14T20:43:17.123Z,76.87
2017-08-14T20:45:44.578Z,77.04
2017-08-14T20:48:12.062Z,76.98
2017-08-14T20:50:39.557Z,77.64
2017-08-14T20:53:07.017Z,77.36
2017-08-14T20:55:34.462Z,78.23
2017-08-14T20:58:02.027Z,78.88
2017-08-14T21:00:29.470Z,78.10
2017-08-14T21:02:57.034Z,77.83
2017-08-14T21:05:24.495Z,78.07
2017-08-14T21:07:52.057Z,78.32
2017-08-14T21:10:19.499Z,78.73
2017-08-14T21:12:47.258Z,79.29
2017-08-14T21:15:14.698Z,79.38
2017-08-14T21:17:42.191Z,78.41
2017-08-14T21:20:09.755Z,79.43
2017-08-14T21:22:37.467Z,78.76
2017-08-14T21:25:04.931Z,78.90
2017-08-14T21:27:32.403Z,79.18
2017-08-14T21:29:59.858Z,79.12
2017-08-14T21:32:27.293Z,79.50
2017-08-14T21:34:55.607Z,80.16
2017-08-14T21:37:23.073Z,81.02
2017-08-14T21:39:50.537Z,80.95
2017-08-14T21:42:18.075Z,81.34
2017-08-14T21:44:45.645Z,81.52
2017-08-14T21:47:13.082Z,81.61
2017-08-14T21:49:40.550Z,81.88
2017-08-14T21:52:07.987Z,80.64
2017-08-14T21:54:35.442Z,80.96
2017-08-14T21:57:02.902Z,80.60
2017-08-14T21:59:30.412Z,81.09
2017-08-14T22:01:57.995Z,81.27
2017-08-14T22:04:25.498Z,80.64
2017-08-14T22:06:52.954Z,81.43
2017-08-14T22:09:20.413Z,81.77
2017-08-14T22:11:47.860Z,81.49
2017-08-14T22:14:15.415Z,82.57
2017-08-14T22:16:42.860Z,82.49
2017-08-14T22:19:10.319Z,82.48
2017-08-14T22:21:37.786Z,81.96
2017-08-14T22:24:05.562Z,81.90
2017-08-14T22:26:32.997Z,82.62
2017-08-14T22:29:00.440Z,82.91
2017-08-14T22:31:27.907Z,82.22
2017-08-14T22:33:55.347Z,81.79
2017-08-14T22:36:22.843Z,81.28
2017-08-14T22:38:50.400Z,81.77
2017-08-14T22:41:17.854Z,82.40
2017-08-14T22:43:45.294Z,83.75
2017-08-14T22:46:12.777Z,83.22
2017-08-14T22:48:40.331Z,82.89
2017-08-14T22:51:07.787Z,82.78
2017-08-14T22:53:35.342Z,82.71
2017-08-14T22:56:02.803Z,82.74
2017-08-14T22:58:30.238Z,83.59
2017-08-14T23:00:57.706Z,82.60
2017-08-14T23:03:25.166Z,82.39
2017-08-14T23:05:52.623Z,82.40
2017-08-14T23:08:20.062Z,82.48
2017-08-14T23:10:47.542Z,83.39
2017-08-14T23:13:14.982Z,83.72
2017-08-14T23:15:42.550Z,82.90
2017-08-14T23:18:10.055Z,83.47
2017-08-14T23:20:37.519Z,84.54
2017-08-14T23:23:05.022Z,83.56
2017-08-14T23:25:32.786Z,83.29
2017-08-14T23:28:00.241Z,83.04
2017-08-14T23:30:27.684Z,83.04
2017-08-14T23:32:55.148Z,82.93
2017-08-14T23:35:22.626Z,82.86
2017-08-14T23:37:50.155Z,83.41
2017-08-14T23:40:17.607Z,83.71
2017-08-14T23:42:45.091Z,84.33
2017-08-14T23:45:12.641Z,83.44
2017-08-14T23:47:40.120Z,83.66
2017-08-14T23:50:07.658Z,83.28
2017-08-14T23:52:35.220Z,84.24
2017-08-14T23:55:02.791Z,85.21
2017-08-14T23:57:30.336Z,85.86
2017-08-14T23:59:57.899Z,86.94
